Winchester, Nevada
Current Conditions -  °F | °C
As of 8:56 AM on Thursday 23 Oct 2014 (Local Time) from KLAS Reporting Station
Broken Clouds Broken Clouds  
Wind Chill: 69°   Ceiling: 25000
Heat Index: 69°   Visibility: 10mi
Dew Point: 32°   Wind: 6mph
Humidity: 25%   Direction: 190°S
Pressure: 30.07"   Gusts: NA
Location:  36.13°N, 115.11°W
Report Text: KLAS 231556Z 19005KT 10SM BKN250 21/00 A3007 RMK AO2 SLP167 T02060000
Loading
Personal Weather Stations






























Interactive Weather Map
Tropical Storm Tracking
New forecast layout! Learn more

10-Day Weather Forecast

Advertisements
Track Severe Weather on mobile